TAF and METAR

METAR for Iringa Airport

HTIR 011300Z 00000KT 9999 TS BKN022 FEW023CB 24/20 Q1018
Report created 1. apr 15:00
wind 0 knots from N (000°) visibility > 10km thunderstorm broken clouds (~75% cover) at 2200 feet some clouds (~25% cover) at 2300 feet of type cumulonimbus Temperature 24° with dewpoint at 20° (Humidity 78.39%) Pressure 1018 hPa
No TAF available for Iringa Airport